sensor_id;sensor_type;location;lat;lon;timestamp;P1;durP1;ratioP1;P2;durP2;ratioP2
25731;SDS011;13585;50.864;4.406;2023-04-21T00:00:55;3.40;;;3.10;;
25731;SDS011;13585;50.864;4.406;2023-04-21T00:03:20;3.40;;;2.97;;
25731;SDS011;13585;50.864;4.406;2023-04-21T00:05:50;3.72;;;3.20;;
25731;SDS011;13585;50.864;4.406;2023-04-21T00:08:16;3.60;;;3.20;;
25731;SDS011;13585;50.864;4.406;2023-04-21T00:10:42;4.10;;;3.20;;
25731;SDS011;13585;50.864;4.406;2023-04-21T00:13:08;4.00;;;3.40;;
25731;SDS011;13585;50.864;4.406;2023-04-21T00:15:34;3.45;;;2.75;;
25731;SDS011;13585;50.864;4.406;2023-04-21T00:18:00;5.13;;;3.17;;
25731;SDS011;13585;50.864;4.406;2023-04-21T00:20:27;3.17;;;2.88;;
25731;SDS011;13585;50.864;4.406;2023-04-21T00:22:54;7.75;;;3.42;;
25731;SDS011;13585;50.864;4.406;2023-04-21T00:25:20;4.47;;;3.10;;
25731;SDS011;13585;50.864;4.406;2023-04-21T00:27:47;3.95;;;3.10;;
25731;SDS011;13585;50.864;4.406;2023-04-21T00:30:13;4.07;;;3.45;;
25731;SDS011;13585;50.864;4.406;2023-04-21T00:32:39;4.18;;;3.28;;
25731;SDS011;13585;50.864;4.406;2023-04-21T00:35:04;3.78;;;2.80;;
25731;SDS011;13585;50.864;4.406;2023-04-21T00:37:30;3.72;;;3.20;;
25731;SDS011;13585;50.864;4.406;2023-04-21T00:39:56;3.75;;;3.38;;
25731;SDS011;13585;50.864;4.406;2023-04-21T00:42:22;3.58;;;3.13;;
25731;SDS011;13585;50.864;4.406;2023-04-21T00:44:49;3.28;;;2.95;;
25731;SDS011;13585;50.864;4.406;2023-04-21T00:47:16;3.90;;;3.40;;
25731;SDS011;13585;50.864;4.406;2023-04-21T00:49:42;3.67;;;3.25;;
25731;SDS011;13585;50.864;4.406;2023-04-21T00:52:08;3.30;;;2.97;;
25731;SDS011;13585;50.864;4.406;2023-04-21T00:54:34;3.83;;;3.33;;
25731;SDS011;13585;50.864;4.406;2023-04-21T00:57:00;4.28;;;3.15;;
25731;SDS011;13585;50.864;4.406;2023-04-21T00:59:28;3.45;;;3.15;;
25731;SDS011;13585;50.864;4.406;2023-04-21T01:01:56;3.95;;;3.55;;
25731;SDS011;13585;50.864;4.406;2023-04-21T01:04:22;3.47;;;3.00;;
25731;SDS011;13585;50.864;4.406;2023-04-21T01:06:47;3.70;;;2.97;;
25731;SDS011;13585;50.864;4.406;2023-04-21T01:09:13;4.28;;;3.20;;
25731;SDS011;13585;50.864;4.406;2023-04-21T01:11:39;3.92;;;3.10;;
25731;SDS011;13585;50.864;4.406;2023-04-21T01:14:24;4.65;;;3.50;;
25731;SDS011;13585;50.864;4.406;2023-04-21T01:16:50;3.30;;;2.95;;
25731;SDS011;13585;50.864;4.406;2023-04-21T01:19:16;5.20;;;3.22;;
25731;SDS011;13585;50.864;4.406;2023-04-21T01:21:42;3.45;;;3.00;;
25731;SDS011;13585;50.864;4.406;2023-04-21T01:24:08;3.63;;;3.10;;
25731;SDS011;13585;50.864;4.406;2023-04-21T01:26:34;5.82;;;3.45;;
25731;SDS011;13585;50.864;4.406;2023-04-21T01:29:00;3.70;;;3.40;;
25731;SDS011;13585;50.864;4.406;2023-04-21T01:31:25;4.68;;;3.67;;
25731;SDS011;13585;50.864;4.406;2023-04-21T01:33:51;4.85;;;3.15;;
25731;SDS011;13585;50.864;4.406;2023-04-21T01:36:16;3.42;;;3.10;;
25731;SDS011;13585;50.864;4.406;2023-04-21T01:38:42;3.20;;;2.90;;
25731;SDS011;13585;50.864;4.406;2023-04-21T01:41:08;3.50;;;3.05;;
25731;SDS011;13585;50.864;4.406;2023-04-21T01:43:34;3.72;;;3.15;;
25731;SDS011;13585;50.864;4.406;2023-04-21T01:46:01;4.50;;;3.78;;
25731;SDS011;13585;50.864;4.406;2023-04-21T01:48:28;3.53;;;3.20;;
25731;SDS011;13585;50.864;4.406;2023-04-21T01:50:53;3.90;;;3.40;;
25731;SDS011;13585;50.864;4.406;2023-04-21T01:53:19;5.53;;;3.10;;
25731;SDS011;13585;50.864;4.406;2023-04-21T01:55:44;4.13;;;3.10;;
25731;SDS011;13585;50.864;4.406;2023-04-21T01:58:10;5.35;;;3.17;;
25731;SDS011;13585;50.864;4.406;2023-04-21T02:00:36;3.72;;;3.28;;
25731;SDS011;13585;50.864;4.406;2023-04-21T02:03:01;4.00;;;3.22;;
25731;SDS011;13585;50.864;4.406;2023-04-21T02:05:27;3.58;;;3.28;;
25731;SDS011;13585;50.864;4.406;2023-04-21T02:07:53;3.20;;;2.90;;
25731;SDS011;13585;50.864;4.406;2023-04-21T02:10:19;3.85;;;3.33;;
25731;SDS011;13585;50.864;4.406;2023-04-21T02:12:44;3.22;;;2.92;;
25731;SDS011;13585;50.864;4.406;2023-04-21T02:15:10;3.35;;;3.05;;
25731;SDS011;13585;50.864;4.406;2023-04-21T02:17:36;3.08;;;2.78;;
25731;SDS011;13585;50.864;4.406;2023-04-21T02:20:01;4.20;;;3.15;;
25731;SDS011;13585;50.864;4.406;2023-04-21T02:22:28;3.72;;;3.20;;
25731;SDS011;13585;50.864;4.406;2023-04-21T02:24:54;3.08;;;2.78;;
25731;SDS011;13585;50.864;4.406;2023-04-21T02:27:19;3.40;;;3.10;;
25731;SDS011;13585;50.864;4.406;2023-04-21T02:29:45;3.50;;;3.20;;
25731;SDS011;13585;50.864;4.406;2023-04-21T02:32:13;3.17;;;2.78;;
25731;SDS011;13585;50.864;4.406;2023-04-21T02:34:38;3.50;;;3.15;;
25731;SDS011;13585;50.864;4.406;2023-04-21T02:37:06;3.83;;;3.42;;
25731;SDS011;13585;50.864;4.406;2023-04-21T02:39:31;3.45;;;3.10;;
25731;SDS011;13585;50.864;4.406;2023-04-21T02:41:57;4.22;;;3.10;;
25731;SDS011;13585;50.864;4.406;2023-04-21T02:44:22;3.67;;;3.30;;
25731;SDS011;13585;50.864;4.406;2023-04-21T02:46:48;3.63;;;3.28;;
25731;SDS011;13585;50.864;4.406;2023-04-21T02:49:14;4.40;;;3.08;;
25731;SDS011;13585;50.864;4.406;2023-04-21T02:51:39;3.38;;;3.08;;
25731;SDS011;13585;50.864;4.406;2023-04-21T02:54:06;3.55;;;3.25;;
25731;SDS011;13585;50.864;4.406;2023-04-21T02:56:32;4.30;;;3.17;;
25731;SDS011;13585;50.864;4.406;2023-04-21T02:58:58;4.40;;;3.33;;
25731;SDS011;13585;50.864;4.406;2023-04-21T03:01:24;4.07;;;3.50;;
25731;SDS011;13585;50.864;4.406;2023-04-21T03:03:50;3.65;;;3.33;;
25731;SDS011;13585;50.864;4.406;2023-04-21T03:06:15;3.72;;;3.30;;
25731;SDS011;13585;50.864;4.406;2023-04-21T03:08:41;3.45;;;3.15;;
25731;SDS011;13585;50.864;4.406;2023-04-21T03:11:07;4.13;;;3.53;;
25731;SDS011;13585;50.864;4.406;2023-04-21T03:13:32;4.03;;;3.58;;
25731;SDS011;13585;50.864;4.406;2023-04-21T03:15:58;3.75;;;3.10;;
25731;SDS011;13585;50.864;4.406;2023-04-21T03:18:23;3.50;;;3.20;;
25731;SDS011;13585;50.864;4.406;2023-04-21T03:20:49;3.67;;;3.38;;
25731;SDS011;13585;50.864;4.406;2023-04-21T03:23:15;3.30;;;3.00;;
25731;SDS011;13585;50.864;4.406;2023-04-21T03:25:41;3.50;;;3.20;;
25731;SDS011;13585;50.864;4.406;2023-04-21T03:28:07;4.78;;;3.70;;
25731;SDS011;13585;50.864;4.406;2023-04-21T03:30:33;3.97;;;3.58;;
25731;SDS011;13585;50.864;4.406;2023-04-21T03:32:58;4.28;;;3.55;;
25731;SDS011;13585;50.864;4.406;2023-04-21T03:35:24;4.07;;;3.45;;
25731;SDS011;13585;50.864;4.406;2023-04-21T03:37:50;3.85;;;3.45;;
25731;SDS011;13585;50.864;4.406;2023-04-21T03:40:15;3.40;;;3.10;;
25731;SDS011;13585;50.864;4.406;2023-04-21T03:42:41;3.55;;;3.25;;
25731;SDS011;13585;50.864;4.406;2023-04-21T03:45:07;3.60;;;3.03;;
25731;SDS011;13585;50.864;4.406;2023-04-21T03:47:34;5.15;;;3.63;;
25731;SDS011;13585;50.864;4.406;2023-04-21T03:50:00;4.45;;;2.95;;
25731;SDS011;13585;50.864;4.406;2023-04-21T03:52:28;4.38;;;3.80;;
25731;SDS011;13585;50.864;4.406;2023-04-21T03:54:55;3.53;;;3.22;;
25731;SDS011;13585;50.864;4.406;2023-04-21T03:57:21;3.85;;;3.30;;
25731;SDS011;13585;50.864;4.406;2023-04-21T03:59:46;4.20;;;3.53;;
25731;SDS011;13585;50.864;4.406;2023-04-21T04:02:12;3.75;;;3.45;;
25731;SDS011;13585;50.864;4.406;2023-04-21T04:04:37;4.15;;;3.58;;
25731;SDS011;13585;50.864;4.406;2023-04-21T04:07:03;4.10;;;3.65;;
25731;SDS011;13585;50.864;4.406;2023-04-21T04:09:31;4.30;;;3.70;;
25731;SDS011;13585;50.864;4.406;2023-04-21T04:11:57;3.63;;;3.33;;
25731;SDS011;13585;50.864;4.406;2023-04-21T04:14:22;3.88;;;3.58;;
25731;SDS011;13585;50.864;4.406;2023-04-21T04:16:48;4.10;;;3.70;;
25731;SDS011;13585;50.864;4.406;2023-04-21T04:19:13;4.03;;;3.63;;
25731;SDS011;13585;50.864;4.406;2023-04-21T04:21:40;3.97;;;3.55;;
25731;SDS011;13585;50.864;4.406;2023-04-21T04:24:05;4.45;;;3.70;;
25731;SDS011;13585;50.864;4.406;2023-04-21T04:26:32;4.72;;;4.10;;
25731;SDS011;13585;50.864;4.406;2023-04-21T04:29:02;4.28;;;3.88;;
25731;SDS011;13585;50.864;4.406;2023-04-21T04:31:29;3.53;;;3.22;;
25731;SDS011;13585;50.864;4.406;2023-04-21T04:33:56;3.95;;;3.55;;
25731;SDS011;13585;50.864;4.406;2023-04-21T04:36:22;3.67;;;3.35;;
25731;SDS011;13585;50.864;4.406;2023-04-21T04:38:48;4.10;;;3.60;;
25731;SDS011;13585;50.864;4.406;2023-04-21T04:41:14;4.45;;;3.72;;
25731;SDS011;13585;50.864;4.406;2023-04-21T04:43:40;3.90;;;3.50;;
25731;SDS011;13585;50.864;4.406;2023-04-21T04:46:06;4.28;;;3.85;;
25731;SDS011;13585;50.864;4.406;2023-04-21T04:48:36;4.00;;;3.60;;
25731;SDS011;13585;50.864;4.406;2023-04-21T04:51:02;3.67;;;3.35;;
25731;SDS011;13585;50.864;4.406;2023-04-21T04:53:28;3.83;;;3.42;;
25731;SDS011;13585;50.864;4.406;2023-04-21T04:55:54;4.07;;;3.28;;
25731;SDS011;13585;50.864;4.406;2023-04-21T04:58:21;3.45;;;3.15;;
25731;SDS011;13585;50.864;4.406;2023-04-21T05:00:47;3.85;;;3.47;;
25731;SDS011;13585;50.864;4.406;2023-04-21T05:03:12;4.20;;;3.80;;
25731;SDS011;13585;50.864;4.406;2023-04-21T05:05:38;3.53;;;3.22;;
25731;SDS011;13585;50.864;4.406;2023-04-21T05:08:03;4.43;;;3.28;;
25731;SDS011;13585;50.864;4.406;2023-04-21T05:10:38;3.55;;;3.15;;
25731;SDS011;13585;50.864;4.406;2023-04-21T05:13:04;3.53;;;3.20;;
25731;SDS011;13585;50.864;4.406;2023-04-21T05:15:30;4.18;;;3.70;;
25731;SDS011;13585;50.864;4.406;2023-04-21T05:17:56;5.03;;;3.67;;
25731;SDS011;13585;50.864;4.406;2023-04-21T05:20:21;4.72;;;3.70;;
25731;SDS011;13585;50.864;4.406;2023-04-21T05:22:47;3.65;;;3.35;;
25731;SDS011;13585;50.864;4.406;2023-04-21T05:25:13;3.95;;;3.30;;
25731;SDS011;13585;50.864;4.406;2023-04-21T05:27:39;3.90;;;3.50;;
25731;SDS011;13585;50.864;4.406;2023-04-21T05:30:06;4.38;;;3.78;;
25731;SDS011;13585;50.864;4.406;2023-04-21T05:32:32;4.88;;;3.88;;
25731;SDS011;13585;50.864;4.406;2023-04-21T05:34:57;6.07;;;3.70;;
25731;SDS011;13585;50.864;4.406;2023-04-21T05:37:24;4.53;;;3.72;;
25731;SDS011;13585;50.864;4.406;2023-04-21T05:39:50;4.13;;;3.72;;
25731;SDS011;13585;50.864;4.406;2023-04-21T05:42:16;5.20;;;3.78;;
25731;SDS011;13585;50.864;4.406;2023-04-21T05:44:42;4.90;;;4.40;;
25731;SDS011;13585;50.864;4.406;2023-04-21T05:47:08;4.65;;;4.10;;
25731;SDS011;13585;50.864;4.406;2023-04-21T05:49:33;5.80;;;4.18;;
25731;SDS011;13585;50.864;4.406;2023-04-21T05:51:59;4.13;;;3.72;;
25731;SDS011;13585;50.864;4.406;2023-04-21T05:54:25;4.43;;;4.00;;
25731;SDS011;13585;50.864;4.406;2023-04-21T05:56:50;7.22;;;4.30;;
25731;SDS011;13585;50.864;4.406;2023-04-21T05:59:16;4.30;;;3.90;;
25731;SDS011;13585;50.864;4.406;2023-04-21T06:01:42;4.65;;;4.00;;
25731;SDS011;13585;50.864;4.406;2023-04-21T06:04:07;3.95;;;3.55;;
25731;SDS011;13585;50.864;4.406;2023-04-21T06:06:33;5.45;;;4.10;;
25731;SDS011;13585;50.864;4.406;2023-04-21T06:08:59;4.82;;;3.88;;
25731;SDS011;13585;50.864;4.406;2023-04-21T06:11:25;4.78;;;4.10;;
25731;SDS011;13585;50.864;4.406;2023-04-21T06:13:50;4.80;;;4.10;;
25731;SDS011;13585;50.864;4.406;2023-04-21T06:16:18;4.00;;;3.70;;
25731;SDS011;13585;50.864;4.406;2023-04-21T06:18:44;4.88;;;4.20;;
25731;SDS011;13585;50.864;4.406;2023-04-21T06:21:09;5.18;;;4.15;;
25731;SDS011;13585;50.864;4.406;2023-04-21T06:23:35;4.22;;;3.83;;
25731;SDS011;13585;50.864;4.406;2023-04-21T06:26:01;4.07;;;3.67;;
25731;SDS011;13585;50.864;4.406;2023-04-21T06:28:29;4.40;;;3.67;;
25731;SDS011;13585;50.864;4.406;2023-04-21T06:30:56;4.80;;;4.07;;
25731;SDS011;13585;50.864;4.406;2023-04-21T06:33:22;4.40;;;3.65;;
25731;SDS011;13585;50.864;4.406;2023-04-21T06:35:48;4.32;;;3.92;;
25731;SDS011;13585;50.864;4.406;2023-04-21T06:38:13;4.70;;;4.00;;
25731;SDS011;13585;50.864;4.406;2023-04-21T06:40:39;4.95;;;3.90;;
25731;SDS011;13585;50.864;4.406;2023-04-21T06:43:06;3.75;;;3.45;;
25731;SDS011;13585;50.864;4.406;2023-04-21T06:45:31;4.07;;;3.60;;
25731;SDS011;13585;50.864;4.406;2023-04-21T06:47:57;4.30;;;3.78;;
25731;SDS011;13585;50.864;4.406;2023-04-21T06:50:23;4.20;;;3.80;;
25731;SDS011;13585;50.864;4.406;2023-04-21T06:52:48;4.10;;;3.70;;
25731;SDS011;13585;50.864;4.406;2023-04-21T06:55:14;4.65;;;3.67;;
25731;SDS011;13585;50.864;4.406;2023-04-21T06:57:39;4.70;;;4.15;;
25731;SDS011;13585;50.864;4.406;2023-04-21T07:00:05;4.38;;;3.78;;
25731;SDS011;13585;50.864;4.406;2023-04-21T07:02:31;5.05;;;3.97;;
25731;SDS011;13585;50.864;4.406;2023-04-21T07:04:57;4.00;;;3.60;;
25731;SDS011;13585;50.864;4.406;2023-04-21T07:07:22;4.38;;;3.97;;
25731;SDS011;13585;50.864;4.406;2023-04-21T07:09:48;4.18;;;3.78;;
25731;SDS011;13585;50.864;4.406;2023-04-21T07:12:14;4.35;;;3.90;;
25731;SDS011;13585;50.864;4.406;2023-04-21T07:14:39;3.47;;;3.17;;
25731;SDS011;13585;50.864;4.406;2023-04-21T07:17:05;4.15;;;3.47;;
25731;SDS011;13585;50.864;4.406;2023-04-21T07:19:30;4.10;;;3.70;;
25731;SDS011;13585;50.864;4.406;2023-04-21T07:21:56;4.07;;;3.60;;
25731;SDS011;13585;50.864;4.406;2023-04-21T07:24:22;3.72;;;3.28;;
25731;SDS011;13585;50.864;4.406;2023-04-21T07:26:48;5.43;;;3.63;;
25731;SDS011;13585;50.864;4.406;2023-04-21T07:29:13;4.32;;;3.88;;
25731;SDS011;13585;50.864;4.406;2023-04-21T07:31:39;3.42;;;3.13;;
25731;SDS011;13585;50.864;4.406;2023-04-21T07:34:05;4.30;;;3.90;;
25731;SDS011;13585;50.864;4.406;2023-04-21T07:36:30;5.10;;;4.05;;
25731;SDS011;13585;50.864;4.406;2023-04-21T07:38:56;4.35;;;3.67;;
25731;SDS011;13585;50.864;4.406;2023-04-21T07:41:21;4.60;;;4.10;;
25731;SDS011;13585;50.864;4.406;2023-04-21T07:43:47;3.85;;;3.40;;
25731;SDS011;13585;50.864;4.406;2023-04-21T07:46:13;4.15;;;3.42;;
25731;SDS011;13585;50.864;4.406;2023-04-21T07:48:39;4.20;;;3.60;;
25731;SDS011;13585;50.864;4.406;2023-04-21T07:51:05;4.07;;;3.65;;
25731;SDS011;13585;50.864;4.406;2023-04-21T07:53:30;4.90;;;3.80;;
25731;SDS011;13585;50.864;4.406;2023-04-21T07:55:56;4.38;;;3.75;;
25731;SDS011;13585;50.864;4.406;2023-04-21T07:58:22;3.78;;;3.47;;
25731;SDS011;13585;50.864;4.406;2023-04-21T08:00:48;4.28;;;3.60;;
25731;SDS011;13585;50.864;4.406;2023-04-21T08:03:14;3.63;;;3.28;;
25731;SDS011;13585;50.864;4.406;2023-04-21T08:05:41;3.75;;;3.42;;
25731;SDS011;13585;50.864;4.406;2023-04-21T08:08:07;3.70;;;3.40;;
25731;SDS011;13585;50.864;4.406;2023-04-21T08:10:32;4.00;;;3.33;;
25731;SDS011;13585;50.864;4.406;2023-04-21T08:12:58;4.07;;;3.20;;
25731;SDS011;13585;50.864;4.406;2023-04-21T08:15:24;3.38;;;3.08;;
25731;SDS011;13585;50.864;4.406;2023-04-21T08:17:50;4.13;;;3.58;;
25731;SDS011;13585;50.864;4.406;2023-04-21T08:20:15;4.07;;;3.47;;
25731;SDS011;13585;50.864;4.406;2023-04-21T08:22:41;3.97;;;3.58;;
25731;SDS011;13585;50.864;4.406;2023-04-21T08:25:07;3.67;;;2.97;;
25731;SDS011;13585;50.864;4.406;2023-04-21T08:27:33;3.50;;;3.20;;
25731;SDS011;13585;50.864;4.406;2023-04-21T08:30:01;4.28;;;3.38;;
25731;SDS011;13585;50.864;4.406;2023-04-21T08:32:26;3.47;;;3.17;;
25731;SDS011;13585;50.864;4.406;2023-04-21T08:34:52;3.95;;;3.22;;
25731;SDS011;13585;50.864;4.406;2023-04-21T08:37:18;4.28;;;3.28;;
25731;SDS011;13585;50.864;4.406;2023-04-21T08:39:45;3.40;;;3.10;;
25731;SDS011;13585;50.864;4.406;2023-04-21T08:42:15;3.40;;;3.10;;
25731;SDS011;13585;50.864;4.406;2023-04-21T08:44:41;4.72;;;2.92;;
25731;SDS011;13585;50.864;4.406;2023-04-21T08:47:08;2.97;;;2.67;;
25731;SDS011;13585;50.864;4.406;2023-04-21T08:49:38;3.50;;;3.20;;
25731;SDS011;13585;50.864;4.406;2023-04-21T08:52:05;3.70;;;3.25;;
25731;SDS011;13585;50.864;4.406;2023-04-21T08:54:31;3.42;;;3.13;;
25731;SDS011;13585;50.864;4.406;2023-04-21T08:56:57;3.20;;;2.90;;
25731;SDS011;13585;50.864;4.406;2023-04-21T08:59:23;3.85;;;3.33;;
25731;SDS011;13585;50.864;4.406;2023-04-21T09:04:34;3.15;;;2.78;;
25731;SDS011;13585;50.864;4.406;2023-04-21T09:07:03;3.40;;;3.00;;
25731;SDS011;13585;50.864;4.406;2023-04-21T09:09:28;4.32;;;2.97;;
25731;SDS011;13585;50.864;4.406;2023-04-21T09:11:54;3.28;;;2.97;;
25731;SDS011;13585;50.864;4.406;2023-04-21T09:14:32;3.10;;;2.80;;
25731;SDS011;13585;50.864;4.406;2023-04-21T09:16:59;3.38;;;3.08;;
25731;SDS011;13585;50.864;4.406;2023-04-21T09:19:28;4.80;;;3.30;;
25731;SDS011;13585;50.864;4.406;2023-04-21T09:21:57;3.50;;;3.20;;
25731;SDS011;13585;50.864;4.406;2023-04-21T09:24:27;3.13;;;2.83;;
25731;SDS011;13585;50.864;4.406;2023-04-21T09:26:54;3.88;;;3.10;;
25731;SDS011;13585;50.864;4.406;2023-04-21T09:29:23;3.40;;;2.90;;
25731;SDS011;13585;50.864;4.406;2023-04-21T09:31:51;3.28;;;2.97;;
25731;SDS011;13585;50.864;4.406;2023-04-21T09:34:21;2.97;;;2.67;;
25731;SDS011;13585;50.864;4.406;2023-04-21T09:37:00;3.30;;;3.00;;
25731;SDS011;13585;50.864;4.406;2023-04-21T09:39:28;3.42;;;2.78;;
25731;SDS011;13585;50.864;4.406;2023-04-21T09:41:54;5.53;;;2.95;;
25731;SDS011;13585;50.864;4.406;2023-04-21T09:44:21;4.88;;;3.15;;
25731;SDS011;13585;50.864;4.406;2023-04-21T09:46:47;2.97;;;2.70;;
25731;SDS011;13585;50.864;4.406;2023-04-21T09:49:15;3.97;;;2.65;;
25731;SDS011;13585;50.864;4.406;2023-04-21T09:51:42;3.97;;;3.15;;
25731;SDS011;13585;50.864;4.406;2023-04-21T09:54:13;2.85;;;2.65;;
25731;SDS011;13585;50.864;4.406;2023-04-21T09:56:40;3.30;;;2.83;;
25731;SDS011;13585;50.864;4.406;2023-04-21T09:59:08;2.90;;;2.60;;
25731;SDS011;13585;50.864;4.406;2023-04-21T10:01:38;3.05;;;2.70;;
25731;SDS011;13585;50.864;4.406;2023-04-21T10:04:04;3.55;;;2.88;;
25731;SDS011;13585;50.864;4.406;2023-04-21T10:06:30;3.40;;;3.10;;
25731;SDS011;13585;50.864;4.406;2023-04-21T10:08:56;3.28;;;2.90;;
25731;SDS011;13585;50.864;4.406;2023-04-21T10:11:23;4.43;;;3.05;;
25731;SDS011;13585;50.864;4.406;2023-04-21T10:13:49;3.38;;;2.85;;
25731;SDS011;13585;50.864;4.406;2023-04-21T10:16:15;3.97;;;2.83;;
25731;SDS011;13585;50.864;4.406;2023-04-21T10:18:42;3.30;;;3.00;;
25731;SDS011;13585;50.864;4.406;2023-04-21T10:21:19;3.00;;;2.60;;
25731;SDS011;13585;50.864;4.406;2023-04-21T10:23:52;2.95;;;2.65;;
25731;SDS011;13585;50.864;4.406;2023-04-21T10:26:25;2.90;;;2.60;;
25731;SDS011;13585;50.864;4.406;2023-04-21T10:31:29;3.00;;;2.70;;
25731;SDS011;13585;50.864;4.406;2023-04-21T10:40:03;3.00;;;2.70;;
25731;SDS011;13585;50.864;4.406;2023-04-21T10:42:23;2.85;;;2.50;;
25731;SDS011;13585;50.864;4.406;2023-04-21T10:47:56;2.95;;;2.53;;
25731;SDS011;13585;50.864;4.406;2023-04-21T10:52:56;3.08;;;2.78;;
25731;SDS011;13585;50.864;4.406;2023-04-21T10:55:26;2.92;;;2.65;;
25731;SDS011;13585;50.864;4.406;2023-04-21T10:57:53;3.00;;;2.50;;
25731;SDS011;13585;50.864;4.406;2023-04-21T11:00:19;4.82;;;3.05;;
25731;SDS011;13585;50.864;4.406;2023-04-21T11:02:54;3.80;;;3.00;;
25731;SDS011;13585;50.864;4.406;2023-04-21T11:05:25;3.63;;;2.70;;
25731;SDS011;13585;50.864;4.406;2023-04-21T11:08:00;3.05;;;2.75;;
25731;SDS011;13585;50.864;4.406;2023-04-21T11:10:28;4.82;;;3.15;;
25731;SDS011;13585;50.864;4.406;2023-04-21T11:12:56;3.78;;;2.67;;
25731;SDS011;13585;50.864;4.406;2023-04-21T11:15:21;3.45;;;2.67;;
25731;SDS011;13585;50.864;4.406;2023-04-21T11:17:47;3.90;;;2.97;;
25731;SDS011;13585;50.864;4.406;2023-04-21T11:20:13;2.95;;;2.63;;
25731;SDS011;13585;50.864;4.406;2023-04-21T11:22:39;3.40;;;3.00;;
25731;SDS011;13585;50.864;4.406;2023-04-21T11:25:05;2.97;;;2.50;;
25731;SDS011;13585;50.864;4.406;2023-04-21T11:27:41;3.40;;;2.90;;
25731;SDS011;13585;50.864;4.406;2023-04-21T11:30:17;3.60;;;2.67;;
25731;SDS011;13585;50.864;4.406;2023-04-21T11:32:44;4.03;;;2.90;;
25731;SDS011;13585;50.864;4.406;2023-04-21T11:35:30;4.05;;;2.70;;
25731;SDS011;13585;50.864;4.406;2023-04-21T11:38:08;4.93;;;3.60;;
25731;SDS011;13585;50.864;4.406;2023-04-21T11:43:21;4.45;;;3.00;;
25731;SDS011;13585;50.864;4.406;2023-04-21T11:45:48;4.30;;;2.72;;
25731;SDS011;13585;50.864;4.406;2023-04-21T11:48:14;5.68;;;3.00;;
25731;SDS011;13585;50.864;4.406;2023-04-21T11:50:45;3.67;;;2.80;;
25731;SDS011;13585;50.864;4.406;2023-04-21T11:53:15;5.07;;;2.95;;
25731;SDS011;13585;50.864;4.406;2023-04-21T11:55:49;3.38;;;2.80;;
25731;SDS011;13585;50.864;4.406;2023-04-21T11:58:33;6.45;;;2.90;;
25731;SDS011;13585;50.864;4.406;2023-04-21T12:01:05;3.92;;;3.00;;
25731;SDS011;13585;50.864;4.406;2023-04-21T12:03:32;4.47;;;2.70;;
25731;SDS011;13585;50.864;4.406;2023-04-21T12:05:57;6.75;;;3.00;;
25731;SDS011;13585;50.864;4.406;2023-04-21T12:08:23;3.03;;;2.60;;
25731;SDS011;13585;50.864;4.406;2023-04-21T12:10:49;3.70;;;2.70;;
25731;SDS011;13585;50.864;4.406;2023-04-21T12:13:26;7.38;;;2.65;;
25731;SDS011;13585;50.864;4.406;2023-04-21T12:15:52;4.00;;;3.05;;
25731;SDS011;13585;50.864;4.406;2023-04-21T12:18:18;3.75;;;3.03;;
25731;SDS011;13585;50.864;4.406;2023-04-21T12:20:50;3.75;;;2.78;;
25731;SDS011;13585;50.864;4.406;2023-04-21T12:23:17;5.05;;;3.72;;
25731;SDS011;13585;50.864;4.406;2023-04-21T12:25:43;6.07;;;4.20;;
25731;SDS011;13585;50.864;4.406;2023-04-21T12:28:10;9.60;;;5.88;;
25731;SDS011;13585;50.864;4.406;2023-04-21T12:30:39;7.63;;;6.03;;
25731;SDS011;13585;50.864;4.406;2023-04-21T12:33:05;7.28;;;5.90;;
25731;SDS011;13585;50.864;4.406;2023-04-21T12:35:30;9.77;;;5.88;;
25731;SDS011;13585;50.864;4.406;2023-04-21T12:37:57;9.02;;;5.68;;
25731;SDS011;13585;50.864;4.406;2023-04-21T12:40:23;7.55;;;5.50;;
25731;SDS011;13585;50.864;4.406;2023-04-21T12:42:48;6.90;;;4.93;;
25731;SDS011;13585;50.864;4.406;2023-04-21T12:45:14;8.57;;;5.18;;
25731;SDS011;13585;50.864;4.406;2023-04-21T12:47:40;6.50;;;5.13;;
25731;SDS011;13585;50.864;4.406;2023-04-21T12:50:06;6.50;;;4.75;;
25731;SDS011;13585;50.864;4.406;2023-04-21T12:52:32;7.53;;;4.88;;
25731;SDS011;13585;50.864;4.406;2023-04-21T12:54:58;8.05;;;5.20;;
25731;SDS011;13585;50.864;4.406;2023-04-21T12:57:24;7.60;;;4.78;;
25731;SDS011;13585;50.864;4.406;2023-04-21T12:59:49;5.25;;;4.72;;
25731;SDS011;13585;50.864;4.406;2023-04-21T13:02:15;7.72;;;5.38;;
25731;SDS011;13585;50.864;4.406;2023-04-21T13:04:40;5.13;;;4.35;;
25731;SDS011;13585;50.864;4.406;2023-04-21T13:07:06;5.28;;;4.57;;
25731;SDS011;13585;50.864;4.406;2023-04-21T13:09:32;5.20;;;4.28;;
25731;SDS011;13585;50.864;4.406;2023-04-21T13:11:58;5.60;;;4.20;;
25731;SDS011;13585;50.864;4.406;2023-04-21T13:14:24;5.32;;;4.10;;
25731;SDS011;13585;50.864;4.406;2023-04-21T13:16:49;5.20;;;4.15;;
25731;SDS011;13585;50.864;4.406;2023-04-21T13:19:15;8.90;;;4.28;;
25731;SDS011;13585;50.864;4.406;2023-04-21T13:21:41;7.30;;;3.88;;
25731;SDS011;13585;50.864;4.406;2023-04-21T13:24:06;5.20;;;4.18;;
25731;SDS011;13585;50.864;4.406;2023-04-21T13:26:32;5.82;;;4.43;;
25731;SDS011;13585;50.864;4.406;2023-04-21T13:28:59;5.22;;;4.10;;
25731;SDS011;13585;50.864;4.406;2023-04-21T13:31:25;6.40;;;4.03;;
25731;SDS011;13585;50.864;4.406;2023-04-21T13:33:51;5.72;;;4.22;;
25731;SDS011;13585;50.864;4.406;2023-04-21T13:36:24;5.75;;;4.15;;
25731;SDS011;13585;50.864;4.406;2023-04-21T13:38:50;6.22;;;3.78;;
25731;SDS011;13585;50.864;4.406;2023-04-21T13:41:17;5.90;;;4.00;;
25731;SDS011;13585;50.864;4.406;2023-04-21T13:43:43;5.68;;;4.28;;
25731;SDS011;13585;50.864;4.406;2023-04-21T13:46:09;4.72;;;3.70;;
25731;SDS011;13585;50.864;4.406;2023-04-21T13:48:36;5.20;;;3.65;;
25731;SDS011;13585;50.864;4.406;2023-04-21T13:51:01;5.13;;;3.75;;
25731;SDS011;13585;50.864;4.406;2023-04-21T13:53:28;6.30;;;4.10;;
25731;SDS011;13585;50.864;4.406;2023-04-21T13:55:53;4.18;;;3.60;;
25731;SDS011;13585;50.864;4.406;2023-04-21T13:58:20;6.05;;;3.88;;
25731;SDS011;13585;50.864;4.406;2023-04-21T14:00:46;4.35;;;3.95;;
25731;SDS011;13585;50.864;4.406;2023-04-21T14:03:12;5.50;;;3.50;;
25731;SDS011;13585;50.864;4.406;2023-04-21T14:05:40;4.25;;;3.45;;
25731;SDS011;13585;50.864;4.406;2023-04-21T14:08:06;6.65;;;3.45;;
25731;SDS011;13585;50.864;4.406;2023-04-21T14:10:31;4.93;;;3.30;;
25731;SDS011;13585;50.864;4.406;2023-04-21T14:12:57;7.35;;;4.10;;
25731;SDS011;13585;50.864;4.406;2023-04-21T14:15:24;5.65;;;3.35;;
25731;SDS011;13585;50.864;4.406;2023-04-21T14:17:50;6.60;;;3.80;;
25731;SDS011;13585;50.864;4.406;2023-04-21T14:20:16;5.07;;;3.42;;
25731;SDS011;13585;50.864;4.406;2023-04-21T14:22:42;7.55;;;3.80;;
25731;SDS011;13585;50.864;4.406;2023-04-21T14:25:08;4.20;;;3.42;;
25731;SDS011;13585;50.864;4.406;2023-04-21T14:27:33;7.40;;;3.65;;
25731;SDS011;13585;50.864;4.406;2023-04-21T14:29:59;5.78;;;3.60;;
25731;SDS011;13585;50.864;4.406;2023-04-21T14:32:25;10.63;;;4.90;;
25731;SDS011;13585;50.864;4.406;2023-04-21T14:34:51;5.70;;;3.95;;
25731;SDS011;13585;50.864;4.406;2023-04-21T14:37:22;5.90;;;3.60;;
25731;SDS011;13585;50.864;4.406;2023-04-21T14:39:48;6.22;;;3.53;;
25731;SDS011;13585;50.864;4.406;2023-04-21T14:42:14;5.85;;;3.67;;
25731;SDS011;13585;50.864;4.406;2023-04-21T14:44:39;5.72;;;3.28;;
25731;SDS011;13585;50.864;4.406;2023-04-21T14:47:05;5.15;;;3.58;;
25731;SDS011;13585;50.864;4.406;2023-04-21T14:49:31;4.88;;;3.35;;
25731;SDS011;13585;50.864;4.406;2023-04-21T14:51:56;8.27;;;3.67;;
25731;SDS011;13585;50.864;4.406;2023-04-21T14:54:22;5.65;;;3.50;;
25731;SDS011;13585;50.864;4.406;2023-04-21T14:56:48;3.90;;;3.22;;
25731;SDS011;13585;50.864;4.406;2023-04-21T14:59:13;6.28;;;3.45;;
25731;SDS011;13585;50.864;4.406;2023-04-21T15:01:39;5.90;;;3.05;;
25731;SDS011;13585;50.864;4.406;2023-04-21T15:04:05;4.50;;;3.00;;